METAR Data
IDs: Format: Raw Decoded Include TAF

Data at: 1449 UTC 27 Nov 2021

EGOP 271350Z AUTO 01034G48KT //// // FEW050/// 06/M03 Q1007